Airfield :
LOGIN :

Register | Disclaimer

   EN    FR    IT 

 










Legend :    VFR   Marginal VFR   IFR   Intensive IFR   Very Intensive IFR
Visi :
Ceiling :
>= 8 km
>= 3000ft
5 to 8 km
1000 to 3000 ft
1500m to 5 km
500 to 1000 ft
800 to 1500m
200 to 500 ft
< 800m
< 200 ft
Symbols :   Thunderstorms  Fog  Heavy snow  Heavy precipitations  Wind > 20 kt
SIGMETs :     Misc.  Thunderstorms  Icing  Turbulence  Mountain Waves  Volcanic Ashes






- Airport Elevation : 502 ft
- IATA code : ORK


EICK - Cork

CURRENT METAR :
  • 270300Z 18014KT 1600 -RADZ OVC003 10/10 Q0991 NOSIG

EXPIRED METARs :
  • 270230Z 18014KT 150V210 1600 -RADZ OVC002 10/10 Q0992 NOSIG
  • 270200Z 18011KT 150V210 1600 -RADZ OVC002 10/09 Q0993 NOSIG
  • 270130Z 18012KT 150V210 2200 -RADZ OVC002 09/09 Q0994 NOSIG
  • 270100Z 18012KT 4500 -RADZ BKN003 BKN010 BKN019 09/08 Q0995 TEMPO 3000 RA
  • 270030Z 19014KT 8000 -RA BKN006 BKN013 BKN020 09/08 Q0996 TEMPO 3000 RA

TAF AMD TAF EICK
Valid from the 27 at 01:00 until the 28 at 00:00 UTC


270128Z 2701/2724 18015G25KT 5000 -RA BKN010
TEMPO 2701/2706 2000 BKN002
PROB40
TEMPO 2702/2706 0800 FG BKN001
BECMG 2704/2706 24015G25KT
BECMG 2706/2708 25014KT 9999 NSW FEW012 SCT018
PROB40
TEMPO 2708/2712 5000 SHRA
TEMPO 2710/2713 26015G26KT
TEMPO 2712/2715 5000 SHRA SCT018CB
TEMPO 2713/2718 24016G27KT
TEMPO 2717/2724 4000 SHRA SCT012 SCT018CB
BECMG 2718/2720 23017G29KT
BECMG 2722/2724 23014KT



MET'MAP, your aeronautical weather chart ! - Copyright ORBIFLY December 2007 - Disclaimer

ORBIFLY MET'MAP TEAM :

Programming & Development : Alexandra Zaïnal
Concept & original design : Baudouin d'Aumeries
Assistance for programming : Marc-Olivier Méhu
Technical & hardware support : Manuel Goepfert

Contact : metmap@orbifly.com




SOURCES & CREDITS :

   NOAA